Nearby METAR Reports

 

KEQY - Monroe, North Carolina, USA
Distance from station: S 11mi, 18km
Updated: Fri, 03/06/2015 7:01am EST
Mostly cloudy
Mostly cloudy
 Wind from NNE
Wind: NNE 14 mph , 22 km/h
Temperature: 27°F , -3°C
Wind Chill: 16°F , -9°C
Dew Point: 16°F , -9°C
Humidity: 64%
Barometer: 30.42 inHg , 1030.1 hPa
Clouds: Mostly cloudy
Visibility: 10 miles , 16 km
Cloud details: Mostly cloudy 2600 ft
2015/03/06 12:01 KEQY 061201Z AUTO 02012KT 10SM BKN026 M03/M09 A3042 RMK AO2 T10281089
KJQF - Concord Reg Arpt, North Carolina, USA
Distance from station: NNW 16mi, 25km
Updated: Fri, 03/06/2015 6:50am EST
Clear
Clear
 Wind from N
Wind: N 10 mph , 17 km/h
Clouds: Clear
Visibility: 10 miles , 16 km
2015/03/06 11:50 KJQF 061150Z 01009KT 10SM CLR M03/M090 A3048
 
KCLT - Charlotte, North Carolina, USA
Distance from station: W 20mi, 33km
Updated: Fri, 03/06/2015 6:52am EST
Few Clouds
Few Clouds
 Wind from NNE
Wind: NNE 10 mph , 17 km/h
Temperature: 25°F , -4°C
Wind Chill: 15°F , -9°C
Dew Point: 12°F , -11°C
Humidity: 59%
Barometer: 30.44 inHg , 1030.8 hPa
Clouds: Few Clouds
Visibility: 10 miles , 16 km
Cloud details: Few Clouds 25000 ft
2015/03/06 11:52 KCLT 061152Z 02009KT 10SM FEW250 M04/M11 A3044 RMK AO2 SLP314 70048 T10391106 10017 21039 51024
KUZA - Rock Hill, South Carolina, USA
Distance from station: WSW 29mi, 47km
Updated: Fri, 03/06/2015 6:54am EST
Clear
Clear
 Wind from NE
Wind: NE 8 mph , 13 km/h
Temperature: 27°F , -3°C
Wind Chill: 19°F , -7°C
Dew Point: 16°F , -9°C
Humidity: 64%
Barometer: 30.44 inHg , 1030.8 hPa
Clouds: Clear
Visibility: 10 miles , 16 km
2015/03/06 11:54 KUZA 061154Z AUTO 04007KT 020V080 10SM CLR M03/M09 A3044 RMK AO2 SLP316 70044 T10281089 10022 21028 51023
 
KVUJ - Albemarle Stanly, North Carolina, USA
Distance from station: NE 30mi, 48km
Updated: Fri, 03/06/2015 7:15am EST
Overcast
Overcast
 Wind from N
Wind: N 10 mph , 17 km/h, Gust: 16 mph , 26 km/h
Temperature: 27°F , -3°C
Wind Chill: 18°F , -8°C
Dew Point: 19°F , -7°C
Humidity: 74%
Barometer: 30.50 inHg , 1032.8 hPa
Clouds: Overcast
Visibility: 10 miles , 16 km
Cloud details: Overcast 2700 ft
2015/03/06 12:15 KVUJ 061215Z AUTO 36009G14KT 10SM OVC027 M03/M07 A3050 RMK AO2 T10351074
KAFP - Wadesboro/Anson, North Carolina, USA
Distance from station: ESE 31mi, 50km
Updated: Fri, 03/06/2015 7:15am EST
Overcast
Overcast
 Wind from N
Wind: N 12 mph , 19 km/h
Temperature: 30°F , -1°C
Wind Chill: 20°F , -7°C
Dew Point: 21°F , -6°C
Humidity: 69%
Barometer: 30.45 inHg , 1031.2 hPa
Clouds: Overcast
Visibility: 10 miles , 16 km
Cloud details: Overcast 2700 ft
2015/03/06 12:15 KAFP 061215Z AUTO 35010KT 10SM OVC027 M01/M06 A3045 RMK AO2 T10061058
 
KAKH - Gastonia, North Carolina, USA
Distance from station: W 31mi, 51km
Updated: Fri, 03/06/2015 6:54am EST
Clear
Clear
 Wind from NNE
Wind: NNE 10 mph , 17 km/h, Gust: 18 mph , 30 km/h
Temperature: 27°F , -3°C
Wind Chill: 18°F , -8°C
Dew Point: 14°F , -10°C
Humidity: 59%
Barometer: 30.43 inHg , 1030.5 hPa
Clouds: Clear
Visibility: 10 miles , 16 km
2015/03/06 11:54 KAKH 061154Z AUTO 03009G16KT 10SM CLR M03/M10 A3043 RMK AO2 SLP313 7//// T10331100 10017 21033 52023
KRUQ - Salisbury Rowan, North Carolina, USA
Distance from station: N 33mi, 53km
Updated: Fri, 03/06/2015 7:15am EST
Clear
Clear
 Wind from NNE
Wind: NNE 6 mph , 9 km/h
Temperature: 23°F , -5°C
Wind Chill: 16°F , -9°C
Dew Point: 14°F , -10°C
Humidity: 68%
Barometer: 30.46 inHg , 1031.5 hPa
Clouds: Clear
Visibility: 10 miles , 16 km
2015/03/06 12:15 KRUQ 061215Z AUTO 02005KT 10SM CLR M05/M10 A3046 RMK AO2 T10521102
 
KLKR - Lancaster, South Carolina, USA
Distance from station: SSW 35mi, 57km
Updated: Fri, 03/06/2015 7:15am EST
Light rain, Overcast
Light rain, Overcast
 Wind from NNE
Wind: NNE 8 mph , 13 km/h
Temperature: 28°F , -2°C
Wind Chill: 20°F , -7°C
Dew Point: 18°F , -8°C
Humidity: 64%
Barometer: 30.44 inHg , 1030.8 hPa
Summary: Light rain
Clouds: Overcast
Visibility: 10 miles , 16 km
Cloud details: Overcast 6000 ft
2015/03/06 12:15 KLKR 061215Z AUTO 03007KT 10SM -RA OVC060 M02/M08 A3044 RMK AO2
KIPJ - Lincolnton, North Carolina, USA
Distance from station: WNW 39mi, 62km
Updated: Fri, 03/06/2015 7:15am EST
Clear
Clear
 Wind from NNE
Wind: NNE 7 mph , 11 km/h
Temperature: 23°F , -5°C
Wind Chill: 15°F , -9°C
Dew Point: 12°F , -11°C
Humidity: 63%
Barometer: 30.44 inHg , 1030.8 hPa
Clouds: Clear
Visibility: 10 miles , 16 km
2015/03/06 12:15 KIPJ 061215Z AUTO 03006KT 10SM CLR M05/M11 A3044 RMK AO2 T10481106
 
KDCM - Chester Catawba, South Carolina, USA
Distance from station: SW 44mi, 71km
Updated: Fri, 03/06/2015 4:15am EST
NOT Current
Overcast
Overcast
 Wind from N
Wind: N 13 mph , 20 km/h
Temperature: 36°F , 2°C
Wind Chill: 27°F , -3°C
Dew Point: 27°F , -3°C
Humidity: 70%
Barometer: 30.37 inHg , 1028.4 hPa
Clouds: Overcast
Visibility: 10 miles , 16 km
Cloud details: Overcast 6000 ft
2015/03/06 09:15 KDCM 060915Z AUTO 36011KT 10SM OVC060 02/M03 A3037 RMK AO2
KSVH - Statesville, North Carolina, USA
Distance from station: NNW 44mi, 71km
Updated: Fri, 03/06/2015 7:15am EST
Clear
Clear
 Wind from NE
Wind: NE 9 mph , 15 km/h
Temperature: 21°F , -6°C
Wind Chill: 11°F , -12°C
Dew Point: 12°F , -11°C
Humidity: 68%
Barometer: 30.44 inHg , 1030.8 hPa
Clouds: Clear
Visibility: 10 miles , 16 km
2015/03/06 12:15 KSVH 061215Z AUTO 04008KT 10SM CLR M06/M11 A3044 RMK AO2 T10561115
 
KEXX - Davidson Cty Ap, North Carolina, USA
Distance from station: NNE 45mi, 72km
Updated: Fri, 03/06/2015 7:15am EST
Clear
Clear
 Wind from N
Wind: N 5 mph , 7 km/h
Temperature: 23°F , -5°C
Wind Chill: 17°F , -8°C
Dew Point: 10°F , -12°C
Humidity: 58%
Barometer: 30.46 inHg , 1031.5 hPa
Clouds: Clear
Visibility: 10 miles , 16 km
2015/03/06 12:15 KEXX 061215Z AUTO 01004KT 10SM CLR M05/M12 A3046 RMK AO2 T10501125
KCQW - Cheraw, South Carolina, USA
Distance from station: SE 49mi, 78km
Updated: Fri, 03/06/2015 7:15am EST
Overcast
Overcast
 Wind from NNE
Wind: NNE 10 mph , 17 km/h
Temperature: 32°F , 0°C
Wind Chill: 24°F , -4°C
Dew Point: 27°F , -3°C
Humidity: 80%
Barometer: 30.44 inHg , 1030.8 hPa
Clouds: Overcast
Visibility: 10 miles , 16 km
Cloud details: Overcast 2200 ft
2015/03/06 12:15 KCQW 061215Z AUTO 02009KT 10SM OVC022 00/M03 A3044 RMK AO2